sensor_id;sensor_type;location;lat;lon;timestamp;pressure;altitude;pressure_sealevel;temperature;humidity
31096;BME280;17749;51.962;8.560;2024-03-23T06:02:48;99204.50;;;5.75;100.00
31096;BME280;17749;51.962;8.560;2024-03-23T06:05:14;99203.78;;;5.69;100.00
31096;BME280;17749;51.962;8.560;2024-03-23T06:07:40;99203.91;;;5.66;100.00
31096;BME280;17749;51.962;8.560;2024-03-23T06:10:07;99201.19;;;5.68;100.00
31096;BME280;17749;51.962;8.560;2024-03-23T06:12:33;99200.19;;;5.72;100.00
31096;BME280;17749;51.962;8.560;2024-03-23T06:14:59;99207.34;;;5.68;100.00
31096;BME280;17749;51.962;8.560;2024-03-23T06:17:25;99210.03;;;5.67;100.00
31096;BME280;17749;51.962;8.560;2024-03-23T06:19:51;99208.34;;;5.66;100.00
31096;BME280;17749;51.962;8.560;2024-03-23T06:22:18;99199.63;;;5.62;100.00
31096;BME280;17749;51.962;8.560;2024-03-23T06:24:44;99204.88;;;5.64;100.00
31096;BME280;17749;51.962;8.560;2024-03-23T06:27:10;99210.88;;;5.69;100.00
31096;BME280;17749;51.962;8.560;2024-03-23T06:29:36;99199.47;;;5.67;100.00
31096;BME280;17749;51.962;8.560;2024-03-23T06:32:02;99206.38;;;5.71;100.00
31096;BME280;17749;51.962;8.560;2024-03-23T06:34:29;99208.09;;;5.72;100.00
31096;BME280;17749;51.962;8.560;2024-03-23T06:36:56;99206.16;;;5.77;100.00
31096;BME280;17749;51.962;8.560;2024-03-23T06:39:22;99207.72;;;5.83;100.00
31096;BME280;17749;51.962;8.560;2024-03-23T06:41:53;99200.66;;;5.83;100.00
31096;BME280;17749;51.962;8.560;2024-03-23T06:44:20;99205.91;;;5.85;100.00
31096;BME280;17749;51.962;8.560;2024-03-23T06:46:46;99204.13;;;5.85;100.00
31096;BME280;17749;51.962;8.560;2024-03-23T06:49:15;99205.84;;;5.86;100.00
31096;BME280;17749;51.962;8.560;2024-03-23T06:51:41;99203.88;;;5.91;100.00
31096;BME280;17749;51.962;8.560;2024-03-23T06:54:07;99208.25;;;5.94;100.00
31096;BME280;17749;51.962;8.560;2024-03-23T06:56:34;99210.03;;;5.92;100.00
31096;BME280;17749;51.962;8.560;2024-03-23T06:59:00;99202.22;;;5.89;100.00
31096;BME280;17749;51.962;8.560;2024-03-23T07:01:26;99211.78;;;5.93;100.00
31096;BME280;17749;51.962;8.560;2024-03-23T07:03:52;99206.50;;;5.93;100.00
31096;BME280;17749;51.962;8.560;2024-03-23T07:06:18;99207.22;;;5.98;100.00
31096;BME280;17749;51.962;8.560;2024-03-23T07:08:45;99202.84;;;5.97;100.00
31096;BME280;17749;51.962;8.560;2024-03-23T07:18:11;99205.31;;;6.02;100.00
31096;BME280;17749;51.962;8.560;2024-03-23T07:20:56;99207.59;;;6.12;100.00
31096;BME280;17749;51.962;8.560;2024-03-23T07:24:30;99222.31;;;6.20;100.00
31096;BME280;17749;51.962;8.560;2024-03-23T07:27:05;99207.25;;;6.22;100.00
31096;BME280;17749;51.962;8.560;2024-03-23T07:30:06;99216.09;;;6.21;100.00
31096;BME280;17749;51.962;8.560;2024-03-23T07:33:40;99213.38;;;6.24;100.00
31096;BME280;17749;51.962;8.560;2024-03-23T07:40:32;99206.22;;;6.26;100.00
31096;BME280;17749;51.962;8.560;2024-03-23T07:43:01;99212.19;;;6.31;100.00
31096;BME280;17749;51.962;8.560;2024-03-23T07:45:28;99216.38;;;6.36;100.00
31096;BME280;17749;51.962;8.560;2024-03-23T07:47:54;99213.81;;;6.35;100.00
31096;BME280;17749;51.962;8.560;2024-03-23T07:50:20;99217.38;;;6.34;100.00
31096;BME280;17749;51.962;8.560;2024-03-23T07:52:46;99213.56;;;6.41;100.00
31096;BME280;17749;51.962;8.560;2024-03-23T07:55:12;99216.78;;;6.49;100.00
31096;BME280;17749;51.962;8.560;2024-03-23T07:57:38;99215.81;;;6.52;100.00
31096;BME280;17749;51.962;8.560;2024-03-23T08:00:05;99222.78;;;6.54;100.00
31096;BME280;17749;51.962;8.560;2024-03-23T08:02:32;99219.72;;;6.65;100.00
31096;BME280;17749;51.962;8.560;2024-03-23T08:04:58;99215.06;;;6.72;100.00
31096;BME280;17749;51.962;8.560;2024-03-23T08:07:24;99214.59;;;6.84;100.00
31096;BME280;17749;51.962;8.560;2024-03-23T08:09:51;99215.50;;;6.83;100.00
31096;BME280;17749;51.962;8.560;2024-03-23T08:12:17;99221.50;;;6.88;100.00
31096;BME280;17749;51.962;8.560;2024-03-23T08:14:45;99212.25;;;6.98;100.00
31096;BME280;17749;51.962;8.560;2024-03-23T08:17:11;99212.81;;;7.07;100.00
31096;BME280;17749;51.962;8.560;2024-03-23T08:19:37;99219.47;;;7.17;100.00
31096;BME280;17749;51.962;8.560;2024-03-23T08:22:03;99213.28;;;7.18;100.00
31096;BME280;17749;51.962;8.560;2024-03-23T08:24:29;99217.25;;;7.28;100.00
31096;BME280;17749;51.962;8.560;2024-03-23T08:26:56;99220.47;;;7.36;100.00
31096;BME280;17749;51.962;8.560;2024-03-23T08:29:22;99219.22;;;7.45;100.00
31096;BME280;17749;51.962;8.560;2024-03-23T08:31:48;99211.72;;;7.34;100.00
31096;BME280;17749;51.962;8.560;2024-03-23T08:34:14;99213.19;;;7.41;100.00
31096;BME280;17749;51.962;8.560;2024-03-23T08:36:41;99214.78;;;7.45;100.00
31096;BME280;17749;51.962;8.560;2024-03-23T08:39:07;99203.47;;;7.42;100.00
31096;BME280;17749;51.962;8.560;2024-03-23T08:41:33;99205.78;;;7.50;100.00
31096;BME280;17749;51.962;8.560;2024-03-23T08:43:59;99203.53;;;7.61;100.00
31096;BME280;17749;51.962;8.560;2024-03-23T08:46:26;99203.78;;;7.75;100.00
31096;BME280;17749;51.962;8.560;2024-03-23T08:48:53;99189.22;;;7.65;100.00
31096;BME280;17749;51.962;8.560;2024-03-23T08:51:19;99202.09;;;7.74;100.00
31096;BME280;17749;51.962;8.560;2024-03-23T08:53:45;99206.97;;;8.04;100.00
31096;BME280;17749;51.962;8.560;2024-03-23T08:56:12;99193.38;;;8.11;100.00
31096;BME280;17749;51.962;8.560;2024-03-23T08:58:38;99205.25;;;8.03;100.00
31096;BME280;17749;51.962;8.560;2024-03-23T09:01:12;99200.63;;;8.08;100.00
31096;BME280;17749;51.962;8.560;2024-03-23T09:03:41;99212.28;;;8.04;100.00
31096;BME280;17749;51.962;8.560;2024-03-23T09:06:12;99206.44;;;7.96;100.00
31096;BME280;17749;51.962;8.560;2024-03-23T09:08:39;99210.88;;;7.75;100.00
31096;BME280;17749;51.962;8.560;2024-03-23T09:11:07;99212.50;;;7.79;100.00
31096;BME280;17749;51.962;8.560;2024-03-23T09:13:35;99207.25;;;7.98;100.00
31096;BME280;17749;51.962;8.560;2024-03-23T09:16:01;99206.31;;;7.99;100.00
31096;BME280;17749;51.962;8.560;2024-03-23T09:18:31;99198.50;;;7.96;100.00
31096;BME280;17749;51.962;8.560;2024-03-23T09:20:58;99208.59;;;7.87;100.00
31096;BME280;17749;51.962;8.560;2024-03-23T09:23:24;99208.06;;;7.79;100.00
31096;BME280;17749;51.962;8.560;2024-03-23T09:25:50;99219.66;;;7.77;100.00
31096;BME280;17749;51.962;8.560;2024-03-23T09:28:16;99218.22;;;7.47;100.00
31096;BME280;17749;51.962;8.560;2024-03-23T09:30:43;99207.66;;;7.03;100.00
31096;BME280;17749;51.962;8.560;2024-03-23T09:33:10;99205.41;;;6.71;100.00
31096;BME280;17749;51.962;8.560;2024-03-23T09:35:40;99210.03;;;6.66;100.00
31096;BME280;17749;51.962;8.560;2024-03-23T09:38:07;99212.47;;;6.70;100.00
31096;BME280;17749;51.962;8.560;2024-03-23T09:40:43;99206.03;;;6.77;100.00
31096;BME280;17749;51.962;8.560;2024-03-23T09:43:09;99220.34;;;6.95;100.00
31096;BME280;17749;51.962;8.560;2024-03-23T09:45:38;99211.47;;;6.96;100.00
31096;BME280;17749;51.962;8.560;2024-03-23T09:48:06;99207.53;;;7.07;100.00
31096;BME280;17749;51.962;8.560;2024-03-23T09:50:34;99202.56;;;7.21;100.00
31096;BME280;17749;51.962;8.560;2024-03-23T09:53:00;99207.09;;;7.17;100.00
31096;BME280;17749;51.962;8.560;2024-03-23T09:55:27;99200.13;;;7.37;100.00
31096;BME280;17749;51.962;8.560;2024-03-23T09:57:53;99203.13;;;7.70;100.00
31096;BME280;17749;51.962;8.560;2024-03-23T10:00:19;99197.19;;;7.85;100.00
31096;BME280;17749;51.962;8.560;2024-03-23T10:02:45;99183.06;;;7.64;100.00
31096;BME280;17749;51.962;8.560;2024-03-23T10:05:22;99186.66;;;8.04;100.00
31096;BME280;17749;51.962;8.560;2024-03-23T10:07:52;99186.88;;;8.39;100.00
31096;BME280;17749;51.962;8.560;2024-03-23T10:10:18;99178.13;;;8.56;100.00
31096;BME280;17749;51.962;8.560;2024-03-23T10:12:49;99171.53;;;8.84;100.00
31096;BME280;17749;51.962;8.560;2024-03-23T10:15:23;99178.19;;;9.29;100.00
31096;BME280;17749;51.962;8.560;2024-03-23T10:17:50;99172.16;;;9.42;100.00
31096;BME280;17749;51.962;8.560;2024-03-23T10:20:20;99172.97;;;9.44;100.00
31096;BME280;17749;51.962;8.560;2024-03-23T10:22:52;99179.28;;;9.42;100.00
31096;BME280;17749;51.962;8.560;2024-03-23T10:25:22;99175.47;;;9.30;100.00
31096;BME280;17749;51.962;8.560;2024-03-23T10:27:58;99179.44;;;9.39;100.00
31096;BME280;17749;51.962;8.560;2024-03-23T10:30:25;99173.47;;;9.16;100.00
31096;BME280;17749;51.962;8.560;2024-03-23T10:33:12;99169.09;;;8.79;100.00
31096;BME280;17749;51.962;8.560;2024-03-23T10:35:39;99170.97;;;8.39;100.00
31096;BME280;17749;51.962;8.560;2024-03-23T10:38:06;99169.91;;;8.23;100.00
31096;BME280;17749;51.962;8.560;2024-03-23T10:40:37;99177.44;;;7.93;100.00
31096;BME280;17749;51.962;8.560;2024-03-23T10:43:04;99179.09;;;7.95;100.00
31096;BME280;17749;51.962;8.560;2024-03-23T10:45:31;99180.91;;;8.13;100.00
31096;BME280;17749;51.962;8.560;2024-03-23T10:47:57;99176.81;;;8.46;100.00
31096;BME280;17749;51.962;8.560;2024-03-23T10:50:23;99187.22;;;8.69;100.00
31096;BME280;17749;51.962;8.560;2024-03-23T10:52:52;99176.13;;;8.61;100.00
31096;BME280;17749;51.962;8.560;2024-03-23T10:55:19;99175.13;;;8.45;100.00
31096;BME280;17749;51.962;8.560;2024-03-23T10:57:54;99177.91;;;8.61;100.00
31096;BME280;17749;51.962;8.560;2024-03-23T11:00:22;99173.84;;;8.72;100.00
31096;BME280;17749;51.962;8.560;2024-03-23T11:02:49;99172.94;;;8.72;100.00
31096;BME280;17749;51.962;8.560;2024-03-23T11:07:51;99171.59;;;8.82;100.00
31096;BME280;17749;51.962;8.560;2024-03-23T11:10:28;99170.88;;;8.78;100.00
31096;BME280;17749;51.962;8.560;2024-03-23T11:12:56;99166.66;;;8.93;100.00
31096;BME280;17749;51.962;8.560;2024-03-23T11:15:23;99164.53;;;9.00;100.00
31096;BME280;17749;51.962;8.560;2024-03-23T11:18:06;99152.38;;;9.13;100.00
31096;BME280;17749;51.962;8.560;2024-03-23T11:20:37;99159.91;;;9.23;100.00
31096;BME280;17749;51.962;8.560;2024-03-23T11:23:04;99169.84;;;9.00;100.00
31096;BME280;17749;51.962;8.560;2024-03-23T11:25:30;99158.41;;;8.81;100.00
31096;BME280;17749;51.962;8.560;2024-03-23T11:27:58;99170.41;;;8.70;100.00
31096;BME280;17749;51.962;8.560;2024-03-23T11:30:26;99172.09;;;8.71;100.00
31096;BME280;17749;51.962;8.560;2024-03-23T11:32:55;99166.50;;;8.77;100.00
31096;BME280;17749;51.962;8.560;2024-03-23T11:35:35;99170.31;;;9.08;100.00
31096;BME280;17749;51.962;8.560;2024-03-23T11:38:16;99163.31;;;9.25;100.00
31096;BME280;17749;51.962;8.560;2024-03-23T11:40:46;99156.94;;;9.29;100.00
31096;BME280;17749;51.962;8.560;2024-03-23T11:43:14;99155.31;;;9.43;100.00
31096;BME280;17749;51.962;8.560;2024-03-23T11:48:15;99148.50;;;10.06;100.00
31096;BME280;17749;51.962;8.560;2024-03-23T11:50:45;99152.34;;;10.18;100.00
31096;BME280;17749;51.962;8.560;2024-03-23T11:53:21;99144.53;;;9.97;100.00
31096;BME280;17749;51.962;8.560;2024-03-23T11:55:58;99134.53;;;10.02;100.00
31096;BME280;17749;51.962;8.560;2024-03-23T11:58:27;99134.09;;;9.77;100.00
31096;BME280;17749;51.962;8.560;2024-03-23T12:01:03;99137.69;;;9.93;100.00
31096;BME280;17749;51.962;8.560;2024-03-23T12:03:31;99134.16;;;10.26;100.00
31096;BME280;17749;51.962;8.560;2024-03-23T12:06:00;99125.97;;;10.30;100.00
31096;BME280;17749;51.962;8.560;2024-03-23T12:08:37;99124.94;;;10.16;100.00
31096;BME280;17749;51.962;8.560;2024-03-23T12:11:09;99120.81;;;10.10;100.00
31096;BME280;17749;51.962;8.560;2024-03-23T12:13:37;99126.72;;;9.99;100.00
31096;BME280;17749;51.962;8.560;2024-03-23T12:16:16;99122.03;;;9.87;100.00
31096;BME280;17749;51.962;8.560;2024-03-23T12:18:47;99128.81;;;9.59;100.00
31096;BME280;17749;51.962;8.560;2024-03-23T12:21:13;99125.34;;;9.40;100.00
31096;BME280;17749;51.962;8.560;2024-03-23T12:23:40;99138.19;;;9.32;100.00
31096;BME280;17749;51.962;8.560;2024-03-23T12:26:06;99130.22;;;9.14;100.00
31096;BME280;17749;51.962;8.560;2024-03-23T12:28:33;99132.72;;;8.98;100.00
31096;BME280;17749;51.962;8.560;2024-03-23T12:30:59;99163.06;;;8.75;100.00
31096;BME280;17749;51.962;8.560;2024-03-23T12:33:25;99174.84;;;7.91;100.00
31096;BME280;17749;51.962;8.560;2024-03-23T12:35:51;99176.75;;;7.26;100.00
31096;BME280;17749;51.962;8.560;2024-03-23T12:38:17;99185.25;;;6.90;100.00
31096;BME280;17749;51.962;8.560;2024-03-23T12:40:50;99178.72;;;6.77;100.00
31096;BME280;17749;51.962;8.560;2024-03-23T12:43:17;99175.38;;;6.72;100.00
31096;BME280;17749;51.962;8.560;2024-03-23T12:45:47;99191.56;;;6.86;100.00
31096;BME280;17749;51.962;8.560;2024-03-23T12:48:13;99175.06;;;7.01;100.00
31096;BME280;17749;51.962;8.560;2024-03-23T12:50:39;99185.84;;;7.19;100.00
31096;BME280;17749;51.962;8.560;2024-03-23T12:53:05;99181.50;;;7.38;100.00
31096;BME280;17749;51.962;8.560;2024-03-23T12:55:31;99178.09;;;7.36;100.00
31096;BME280;17749;51.962;8.560;2024-03-23T12:57:57;99174.97;;;7.47;100.00
31096;BME280;17749;51.962;8.560;2024-03-23T13:00:23;99167.09;;;7.45;100.00
31096;BME280;17749;51.962;8.560;2024-03-23T13:02:49;99163.97;;;7.56;100.00
31096;BME280;17749;51.962;8.560;2024-03-23T13:05:15;99170.00;;;7.80;100.00
31096;BME280;17749;51.962;8.560;2024-03-23T13:07:41;99159.00;;;7.89;100.00
31096;BME280;17749;51.962;8.560;2024-03-23T13:10:07;99169.84;;;8.04;100.00
31096;BME280;17749;51.962;8.560;2024-03-23T13:12:34;99156.84;;;8.18;100.00
31096;BME280;17749;51.962;8.560;2024-03-23T13:15:01;99172.75;;;8.18;100.00
31096;BME280;17749;51.962;8.560;2024-03-23T13:17:27;99168.78;;;8.28;100.00
31096;BME280;17749;51.962;8.560;2024-03-23T13:19:54;99171.16;;;8.14;100.00
31096;BME280;17749;51.962;8.560;2024-03-23T13:22:22;99165.34;;;8.06;100.00
31096;BME280;17749;51.962;8.560;2024-03-23T13:24:48;99162.97;;;8.20;100.00
31096;BME280;17749;51.962;8.560;2024-03-23T13:27:14;99160.91;;;8.46;100.00
31096;BME280;17749;51.962;8.560;2024-03-23T13:29:40;99156.09;;;8.54;100.00
31096;BME280;17749;51.962;8.560;2024-03-23T13:32:07;99168.00;;;8.45;100.00
31096;BME280;17749;51.962;8.560;2024-03-23T13:34:34;99171.69;;;8.22;100.00
31096;BME280;17749;51.962;8.560;2024-03-23T13:37:01;99176.03;;;8.04;100.00
31096;BME280;17749;51.962;8.560;2024-03-23T13:39:27;99196.66;;;7.98;100.00
31096;BME280;17749;51.962;8.560;2024-03-23T13:41:54;99221.00;;;7.65;100.00
31096;BME280;17749;51.962;8.560;2024-03-23T13:44:23;99218.06;;;7.08;100.00
31096;BME280;17749;51.962;8.560;2024-03-23T13:46:50;99215.50;;;6.61;100.00
31096;BME280;17749;51.962;8.560;2024-03-23T13:49:29;99206.22;;;6.49;100.00
31096;BME280;17749;51.962;8.560;2024-03-23T13:51:57;99191.44;;;6.44;100.00
31096;BME280;17749;51.962;8.560;2024-03-23T13:54:25;99173.09;;;6.63;100.00
31096;BME280;17749;51.962;8.560;2024-03-23T13:56:52;99177.19;;;6.93;100.00
31096;BME280;17749;51.962;8.560;2024-03-23T13:59:18;99175.22;;;7.41;100.00
31096;BME280;17749;51.962;8.560;2024-03-23T14:01:45;99173.72;;;7.76;100.00
31096;BME280;17749;51.962;8.560;2024-03-23T14:04:14;99156.66;;;7.83;100.00
31096;BME280;17749;51.962;8.560;2024-03-23T14:06:46;99164.31;;;7.89;100.00
31096;BME280;17749;51.962;8.560;2024-03-23T14:09:12;99162.84;;;8.03;100.00
31096;BME280;17749;51.962;8.560;2024-03-23T14:11:41;99162.56;;;8.09;100.00
31096;BME280;17749;51.962;8.560;2024-03-23T14:14:09;99153.41;;;8.16;100.00
31096;BME280;17749;51.962;8.560;2024-03-23T14:16:35;99149.56;;;8.23;100.00
31096;BME280;17749;51.962;8.560;2024-03-23T14:19:01;99139.84;;;8.22;100.00
31096;BME280;17749;51.962;8.560;2024-03-23T14:21:27;99144.75;;;8.12;100.00
31096;BME280;17749;51.962;8.560;2024-03-23T14:23:53;99138.94;;;8.04;100.00
31096;BME280;17749;51.962;8.560;2024-03-23T14:26:21;99139.78;;;8.05;100.00
31096;BME280;17749;51.962;8.560;2024-03-23T14:28:47;99158.69;;;7.97;100.00
31096;BME280;17749;51.962;8.560;2024-03-23T14:31:15;99174.25;;;7.84;100.00
31096;BME280;17749;51.962;8.560;2024-03-23T14:33:41;99194.50;;;7.65;100.00
31096;BME280;17749;51.962;8.560;2024-03-23T14:36:16;99220.94;;;7.46;100.00
31096;BME280;17749;51.962;8.560;2024-03-23T14:38:49;99202.84;;;6.91;100.00
31096;BME280;17749;51.962;8.560;2024-03-23T14:41:16;99211.22;;;6.33;100.00
31096;BME280;17749;51.962;8.560;2024-03-23T14:43:42;99213.91;;;6.08;100.00
31096;BME280;17749;51.962;8.560;2024-03-23T14:46:15;99220.31;;;6.01;100.00
31096;BME280;17749;51.962;8.560;2024-03-23T14:48:44;99209.31;;;6.13;100.00
31096;BME280;17749;51.962;8.560;2024-03-23T14:51:10;99203.34;;;6.08;100.00
31096;BME280;17749;51.962;8.560;2024-03-23T14:53:38;99222.81;;;6.06;100.00
31096;BME280;17749;51.962;8.560;2024-03-23T14:56:06;99221.31;;;5.99;100.00
31096;BME280;17749;51.962;8.560;2024-03-23T14:58:33;99238.50;;;5.84;100.00
31096;BME280;17749;51.962;8.560;2024-03-23T15:01:04;99240.59;;;5.47;100.00
31096;BME280;17749;51.962;8.560;2024-03-23T15:03:30;99249.81;;;5.36;100.00
31096;BME280;17749;51.962;8.560;2024-03-23T15:05:58;99253.41;;;5.33;100.00
31096;BME280;17749;51.962;8.560;2024-03-23T15:08:26;99243.72;;;5.34;100.00
31096;BME280;17749;51.962;8.560;2024-03-23T15:10:54;99226.06;;;5.36;100.00
31096;BME280;17749;51.962;8.560;2024-03-23T15:13:20;99211.84;;;5.40;100.00
31096;BME280;17749;51.962;8.560;2024-03-23T15:15:48;99197.31;;;5.53;100.00
31096;BME280;17749;51.962;8.560;2024-03-23T15:18:15;99189.78;;;5.67;100.00
31096;BME280;17749;51.962;8.560;2024-03-23T15:20:42;99182.72;;;5.93;100.00
31096;BME280;17749;51.962;8.560;2024-03-23T15:23:17;99174.59;;;6.23;100.00
31096;BME280;17749;51.962;8.560;2024-03-23T15:25:43;99179.38;;;6.36;100.00
31096;BME280;17749;51.962;8.560;2024-03-23T15:28:09;99175.69;;;6.41;100.00
31096;BME280;17749;51.962;8.560;2024-03-23T15:30:35;99175.56;;;6.44;100.00
31096;BME280;17749;51.962;8.560;2024-03-23T15:33:02;99171.84;;;6.49;100.00
31096;BME280;17749;51.962;8.560;2024-03-23T15:35:28;99162.13;;;6.50;100.00
31096;BME280;17749;51.962;8.560;2024-03-23T15:37:54;99160.84;;;6.60;100.00
31096;BME280;17749;51.962;8.560;2024-03-23T15:40:20;99158.38;;;6.55;100.00
31096;BME280;17749;51.962;8.560;2024-03-23T15:42:46;99144.22;;;6.56;100.00
31096;BME280;17749;51.962;8.560;2024-03-23T15:45:12;99148.38;;;6.64;100.00
31096;BME280;17749;51.962;8.560;2024-03-23T15:47:38;99143.88;;;6.66;100.00
31096;BME280;17749;51.962;8.560;2024-03-23T15:50:05;99144.97;;;6.60;100.00
31096;BME280;17749;51.962;8.560;2024-03-23T15:52:37;99136.97;;;6.62;100.00
31096;BME280;17749;51.962;8.560;2024-03-23T15:55:04;99134.88;;;6.70;100.00
31096;BME280;17749;51.962;8.560;2024-03-23T15:57:34;99133.72;;;6.77;100.00
31096;BME280;17749;51.962;8.560;2024-03-23T16:00:01;99132.56;;;6.84;100.00
31096;BME280;17749;51.962;8.560;2024-03-23T16:02:37;99120.31;;;6.82;100.00
31096;BME280;17749;51.962;8.560;2024-03-23T16:05:03;99118.41;;;6.85;100.00
31096;BME280;17749;51.962;8.560;2024-03-23T16:07:30;99114.81;;;6.86;100.00
31096;BME280;17749;51.962;8.560;2024-03-23T16:09:56;99111.28;;;6.87;100.00
31096;BME280;17749;51.962;8.560;2024-03-23T16:12:22;99112.75;;;6.94;100.00
31096;BME280;17749;51.962;8.560;2024-03-23T16:14:48;99112.16;;;7.08;100.00
31096;BME280;17749;51.962;8.560;2024-03-23T16:17:14;99108.28;;;7.17;100.00
31096;BME280;17749;51.962;8.560;2024-03-23T16:19:41;99110.78;;;7.20;100.00
31096;BME280;17749;51.962;8.560;2024-03-23T16:22:06;99097.41;;;7.23;100.00
31096;BME280;17749;51.962;8.560;2024-03-23T16:24:32;99098.44;;;7.20;100.00
31096;BME280;17749;51.962;8.560;2024-03-23T16:26:59;99091.19;;;7.03;100.00
31096;BME280;17749;51.962;8.560;2024-03-23T16:29:25;99096.88;;;6.94;100.00
31096;BME280;17749;51.962;8.560;2024-03-23T16:31:50;99097.91;;;6.90;100.00
31096;BME280;17749;51.962;8.560;2024-03-23T16:34:17;99097.22;;;6.85;100.00
31096;BME280;17749;51.962;8.560;2024-03-23T16:36:42;99098.94;;;6.86;100.00
31096;BME280;17749;51.962;8.560;2024-03-23T16:39:09;99104.19;;;6.88;100.00
31096;BME280;17749;51.962;8.560;2024-03-23T16:41:35;99097.22;;;6.85;100.00
31096;BME280;17749;51.962;8.560;2024-03-23T16:44:01;99109.16;;;6.95;100.00
31096;BME280;17749;51.962;8.560;2024-03-23T16:46:27;99107.88;;;7.06;100.00
31096;BME280;17749;51.962;8.560;2024-03-23T16:48:53;99118.31;;;7.09;100.00
31096;BME280;17749;51.962;8.560;2024-03-23T16:51:20;99117.06;;;6.97;100.00
31096;BME280;17749;51.962;8.560;2024-03-23T16:53:45;99111.28;;;6.87;100.00
31096;BME280;17749;51.962;8.560;2024-03-23T16:56:12;99114.22;;;6.79;100.00
31096;BME280;17749;51.962;8.560;2024-03-23T16:58:39;99119.94;;;6.69;100.00
31096;BME280;17749;51.962;8.560;2024-03-23T17:01:10;99119.50;;;6.57;100.00
31096;BME280;17749;51.962;8.560;2024-03-23T17:03:47;99119.69;;;6.53;100.00
31096;BME280;17749;51.962;8.560;2024-03-23T17:06:14;99112.88;;;6.47;100.00
31096;BME280;17749;51.962;8.560;2024-03-23T17:08:45;99114.84;;;6.42;100.00
31096;BME280;17749;51.962;8.560;2024-03-23T17:11:13;99115.69;;;6.43;100.00
31096;BME280;17749;51.962;8.560;2024-03-23T17:13:39;99113.22;;;6.38;100.00
31096;BME280;17749;51.962;8.560;2024-03-23T17:16:06;99110.56;;;6.38;100.00
31096;BME280;17749;51.962;8.560;2024-03-23T17:18:33;99111.56;;;6.35;100.00
31096;BME280;17749;51.962;8.560;2024-03-23T17:20:59;99114.16;;;6.37;100.00
31096;BME280;17749;51.962;8.560;2024-03-23T17:23:26;99110.06;;;6.28;100.00
31096;BME280;17749;51.962;8.560;2024-03-23T17:25:54;99110.00;;;6.30;100.00
31096;BME280;17749;51.962;8.560;2024-03-23T17:28:19;99105.06;;;6.21;100.00
31096;BME280;17749;51.962;8.560;2024-03-23T17:30:45;99103.50;;;6.15;100.00
31096;BME280;17749;51.962;8.560;2024-03-23T17:33:16;99105.31;;;6.14;100.00
31096;BME280;17749;51.962;8.560;2024-03-23T17:35:43;99107.13;;;6.12;100.00
31096;BME280;17749;51.962;8.560;2024-03-23T17:38:11;99102.22;;;6.03;100.00
31096;BME280;17749;51.962;8.560;2024-03-23T17:40:38;99103.31;;;5.98;100.00
31096;BME280;17749;51.962;8.560;2024-03-23T17:43:04;99106.03;;;5.95;100.00
31096;BME280;17749;51.962;8.560;2024-03-23T17:45:30;99111.38;;;5.93;100.00
31096;BME280;17749;51.962;8.560;2024-03-23T17:47:56;99115.78;;;5.92;100.00
31096;BME280;17749;51.962;8.560;2024-03-23T17:50:23;99113.97;;;5.95;100.00
31096;BME280;17749;51.962;8.560;2024-03-23T17:52:49;99120.13;;;5.95;100.00
31096;BME280;17749;51.962;8.560;2024-03-23T17:55:16;99112.25;;;5.93;100.00
31096;BME280;17749;51.962;8.560;2024-03-23T17:57:42;99107.91;;;5.91;100.00
31096;BME280;17749;51.962;8.560;2024-03-23T18:00:08;99104.47;;;5.89;100.00
31096;BME280;17749;51.962;8.560;2024-03-23T18:02:37;99109.84;;;5.86;100.00
31096;BME280;17749;51.962;8.560;2024-03-23T18:05:04;99108.25;;;5.82;100.00
31096;BME280;17749;51.962;8.560;2024-03-23T18:07:30;99108.44;;;5.77;100.00
31096;BME280;17749;51.962;8.560;2024-03-23T18:09:57;99120.69;;;5.78;100.00
31096;BME280;17749;51.962;8.560;2024-03-23T18:12:23;99127.78;;;5.78;100.00
31096;BME280;17749;51.962;8.560;2024-03-23T18:14:52;99124.44;;;5.72;100.00
31096;BME280;17749;51.962;8.560;2024-03-23T18:17:20;99135.22;;;5.66;100.00
31096;BME280;17749;51.962;8.560;2024-03-23T18:19:46;99161.41;;;5.47;100.00
31096;BME280;17749;51.962;8.560;2024-03-23T18:22:12;99164.50;;;5.34;100.00
31096;BME280;17749;51.962;8.560;2024-03-23T18:24:41;99161.28;;;5.25;100.00
31096;BME280;17749;51.962;8.560;2024-03-23T18:27:08;99165.63;;;5.00;100.00
31096;BME280;17749;51.962;8.560;2024-03-23T18:29:43;99160.66;;;4.91;100.00
31096;BME280;17749;51.962;8.560;2024-03-23T18:32:09;99145.81;;;4.87;100.00
31096;BME280;17749;51.962;8.560;2024-03-23T18:34:36;99148.47;;;4.87;100.00
31096;BME280;17749;51.962;8.560;2024-03-23T18:37:02;99147.66;;;4.84;100.00
31096;BME280;17749;51.962;8.560;2024-03-23T18:39:28;99146.84;;;4.82;100.00
31096;BME280;17749;51.962;8.560;2024-03-23T18:41:55;99145.22;;;4.78;100.00
31096;BME280;17749;51.962;8.560;2024-03-23T18:44:21;99147.03;;;4.76;100.00
31096;BME280;17749;51.962;8.560;2024-03-23T18:46:47;99145.34;;;4.74;100.00
31096;BME280;17749;51.962;8.560;2024-03-23T18:49:14;99139.31;;;4.70;100.00
31096;BME280;17749;51.962;8.560;2024-03-23T18:51:41;99138.59;;;4.65;100.00
31096;BME280;17749;51.962;8.560;2024-03-23T18:54:07;99140.47;;;4.61;100.00
31096;BME280;17749;51.962;8.560;2024-03-23T18:56:33;99143.16;;;4.60;100.00
31096;BME280;17749;51.962;8.560;2024-03-23T18:59:00;99144.09;;;4.59;100.00
31096;BME280;17749;51.962;8.560;2024-03-23T19:01:26;99140.72;;;4.54;100.00
31096;BME280;17749;51.962;8.560;2024-03-23T19:03:51;99141.59;;;4.53;100.00
31096;BME280;17749;51.962;8.560;2024-03-23T19:06:18;99140.81;;;4.51;100.00
31096;BME280;17749;51.962;8.560;2024-03-23T19:08:44;99139.38;;;4.41;100.00
31096;BME280;17749;51.962;8.560;2024-03-23T19:11:10;99143.00;;;4.36;100.00
31096;BME280;17749;51.962;8.560;2024-03-23T19:13:36;99144.91;;;4.31;100.00
31096;BME280;17749;51.962;8.560;2024-03-23T19:16:03;99147.50;;;4.33;100.00
31096;BME280;17749;51.962;8.560;2024-03-23T19:18:33;99152.00;;;4.29;100.00
31096;BME280;17749;51.962;8.560;2024-03-23T19:21:00;99147.59;;;4.30;100.00
31096;BME280;17749;51.962;8.560;2024-03-23T19:23:27;99151.22;;;4.26;100.00